sensor_id;sensor_type;location;lat;lon;timestamp;pressure;altitude;pressure_sealevel;temperature;humidity
53340;BME280;46212;50.258;19.062;2023-09-12T00:00:54;98265.16;;;17.22;99.80
53340;BME280;46212;50.258;19.062;2023-09-12T00:03:21;98258.78;;;17.38;99.56
53340;BME280;46212;50.258;19.062;2023-09-12T00:05:54;98248.38;;;17.39;99.20
53340;BME280;46212;50.258;19.062;2023-09-12T00:08:20;98264.66;;;17.29;99.29
53340;BME280;46212;50.258;19.062;2023-09-12T00:10:46;98262.09;;;17.26;99.21
53340;BME280;46212;50.258;19.062;2023-09-12T00:13:11;98258.31;;;17.18;98.50
53340;BME280;46212;50.258;19.062;2023-09-12T00:15:37;98261.09;;;17.07;98.44
53340;BME280;46212;50.258;19.062;2023-09-12T00:18:02;98251.72;;;17.04;98.72
53340;BME280;46212;50.258;19.062;2023-09-12T00:20:28;98249.97;;;17.01;98.71
53340;BME280;46212;50.258;19.062;2023-09-12T00:22:53;98253.50;;;17.02;98.85
53340;BME280;46212;50.258;19.062;2023-09-12T00:25:20;98253.75;;;16.98;99.37
53340;BME280;46212;50.258;19.062;2023-09-12T00:27:46;98259.09;;;16.96;99.74
53340;BME280;46212;50.258;19.062;2023-09-12T00:30:11;98245.66;;;16.94;99.80
53340;BME280;46212;50.258;19.062;2023-09-12T00:32:37;98255.03;;;16.97;100.00
53340;BME280;46212;50.258;19.062;2023-09-12T00:35:02;98247.66;;;16.94;99.66
53340;BME280;46212;50.258;19.062;2023-09-12T00:37:28;98248.44;;;17.00;99.28
53340;BME280;46212;50.258;19.062;2023-09-12T00:39:53;98247.16;;;17.01;99.42
53340;BME280;46212;50.258;19.062;2023-09-12T00:42:19;98252.75;;;17.07;99.45
53340;BME280;46212;50.258;19.062;2023-09-12T00:44:44;98255.53;;;17.12;99.21
53340;BME280;46212;50.258;19.062;2023-09-12T00:47:10;98250.97;;;17.20;99.02
53340;BME280;46212;50.258;19.062;2023-09-12T00:49:37;98247.41;;;17.14;98.88
53340;BME280;46212;50.258;19.062;2023-09-12T00:52:03;98257.06;;;17.24;98.31
53340;BME280;46212;50.258;19.062;2023-09-12T00:54:29;98251.72;;;17.10;97.86
53340;BME280;46212;50.258;19.062;2023-09-12T00:56:55;98247.66;;;16.94;98.31
53340;BME280;46212;50.258;19.062;2023-09-12T00:59:20;98251.22;;;16.89;98.87
53340;BME280;46212;50.258;19.062;2023-09-12T01:01:47;98252.75;;;16.79;98.98
53340;BME280;46212;50.258;19.062;2023-09-12T01:04:13;98254.78;;;16.78;98.75
53340;BME280;46212;50.258;19.062;2023-09-12T01:06:38;98249.47;;;16.80;99.04
53340;BME280;46212;50.258;19.062;2023-09-12T01:09:04;98252.75;;;16.79;99.58
53340;BME280;46212;50.258;19.062;2023-09-12T01:11:30;98256.56;;;16.87;98.93
53340;BME280;46212;50.258;19.062;2023-09-12T01:13:55;98267.97;;;16.89;99.49
53340;BME280;46212;50.258;19.062;2023-09-12T01:16:20;98260.34;;;16.84;99.12
53340;BME280;46212;50.258;19.062;2023-09-12T01:18:46;98254.53;;;16.76;98.76
53340;BME280;46212;50.258;19.062;2023-09-12T01:29:51;98250.47;;;16.77;98.68
53340;BME280;46212;50.258;19.062;2023-09-12T01:32:19;98250.72;;;16.74;98.16
53340;BME280;46212;50.258;19.062;2023-09-12T01:34:45;98254.75;;;16.62;97.97
53340;BME280;46212;50.258;19.062;2023-09-12T01:37:10;98258.81;;;16.61;98.45
53340;BME280;46212;50.258;19.062;2023-09-12T01:39:36;98259.00;;;16.46;99.09
53340;BME280;46212;50.258;19.062;2023-09-12T01:42:02;98263.31;;;16.47;99.62
53340;BME280;46212;50.258;19.062;2023-09-12T01:44:28;98253.19;;;16.44;99.69
53340;BME280;46212;50.258;19.062;2023-09-12T01:46:57;98258.50;;;16.47;99.29
53340;BME280;46212;50.258;19.062;2023-09-12T01:49:24;98264.09;;;16.53;99.24
53340;BME280;46212;50.258;19.062;2023-09-12T01:51:51;98264.56;;;16.46;99.26
53340;BME280;46212;50.258;19.062;2023-09-12T01:54:19;98265.81;;;16.34;99.46
53340;BME280;46212;50.258;19.062;2023-09-12T01:56:45;98257.44;;;16.28;100.00
53340;BME280;46212;50.258;19.062;2023-09-12T01:59:11;98247.31;;;16.20;100.00
53340;BME280;46212;50.258;19.062;2023-09-12T02:01:36;98253.66;;;16.26;100.00
53340;BME280;46212;50.258;19.062;2023-09-12T02:04:02;98256.91;;;16.13;100.00
53340;BME280;46212;50.258;19.062;2023-09-12T02:06:27;98249.03;;;16.06;100.00
53340;BME280;46212;50.258;19.062;2023-09-12T02:08:52;98254.09;;;16.08;100.00
53340;BME280;46212;50.258;19.062;2023-09-12T02:11:18;98258.88;;;16.02;100.00
53340;BME280;46212;50.258;19.062;2023-09-12T02:13:43;98259.16;;;16.04;100.00
53340;BME280;46212;50.258;19.062;2023-09-12T02:16:08;98261.47;;;16.11;100.00
53340;BME280;46212;50.258;19.062;2023-09-12T02:18:34;98249.56;;;16.16;100.00
53340;BME280;46212;50.258;19.062;2023-09-12T02:20:59;98253.13;;;16.27;100.00
53340;BME280;46212;50.258;19.062;2023-09-12T02:23:25;98247.84;;;16.29;100.00
53340;BME280;46212;50.258;19.062;2023-09-12T02:25:50;98254.44;;;16.32;100.00
53340;BME280;46212;50.258;19.062;2023-09-12T02:28:15;98254.94;;;16.41;100.00
53340;BME280;46212;50.258;19.062;2023-09-12T02:30:41;98259.81;;;16.52;100.00
53340;BME280;46212;50.258;19.062;2023-09-12T02:33:06;98254.91;;;16.30;100.00
53340;BME280;46212;50.258;19.062;2023-09-12T02:35:32;98248.84;;;16.26;100.00
53340;BME280;46212;50.258;19.062;2023-09-12T02:37:57;98245.53;;;16.22;100.00
53340;BME280;46212;50.258;19.062;2023-09-12T02:40:23;98266.00;;;16.08;100.00
53340;BME280;46212;50.258;19.062;2023-09-12T02:42:48;98263.19;;;16.03;100.00
53340;BME280;46212;50.258;19.062;2023-09-12T02:45:13;98264.72;;;16.04;100.00
53340;BME280;46212;50.258;19.062;2023-09-12T02:47:39;98246.22;;;16.01;100.00
53340;BME280;46212;50.258;19.062;2023-09-12T02:50:04;98253.31;;;16.02;100.00
53340;BME280;46212;50.258;19.062;2023-09-12T02:52:30;98256.63;;;16.06;100.00
53340;BME280;46212;50.258;19.062;2023-09-12T02:54:55;98257.38;;;16.06;100.00
53340;BME280;46212;50.258;19.062;2023-09-12T02:57:21;98262.66;;;15.99;100.00
53340;BME280;46212;50.258;19.062;2023-09-12T02:59:47;98263.94;;;15.98;100.00
53340;BME280;46212;50.258;19.062;2023-09-12T03:02:12;98252.28;;;15.93;100.00
53340;BME280;46212;50.258;19.062;2023-09-12T03:04:37;98252.25;;;15.88;100.00
53340;BME280;46212;50.258;19.062;2023-09-12T03:07:03;98253.03;;;15.94;100.00
53340;BME280;46212;50.258;19.062;2023-09-12T03:09:28;98253.03;;;15.88;100.00
53340;BME280;46212;50.258;19.062;2023-09-12T03:11:54;98259.59;;;15.85;100.00
53340;BME280;46212;50.258;19.062;2023-09-12T03:14:19;98250.69;;;15.76;100.00
53340;BME280;46212;50.258;19.062;2023-09-12T03:16:44;98256.22;;;15.70;100.00
53340;BME280;46212;50.258;19.062;2023-09-12T03:19:10;98266.88;;;15.72;100.00
53340;BME280;46212;50.258;19.062;2023-09-12T03:21:35;98265.84;;;15.69;100.00
53340;BME280;46212;50.258;19.062;2023-09-12T03:24:01;98258.97;;;15.65;100.00
53340;BME280;46212;50.258;19.062;2023-09-12T03:26:27;98273.44;;;15.69;100.00
53340;BME280;46212;50.258;19.062;2023-09-12T03:28:52;98262.28;;;15.63;100.00
53340;BME280;46212;50.258;19.062;2023-09-12T03:31:18;98254.16;;;15.60;100.00
53340;BME280;46212;50.258;19.062;2023-09-12T03:33:44;98263.78;;;15.64;100.00
53340;BME280;46212;50.258;19.062;2023-09-12T03:36:15;98263.53;;;15.62;100.00
53340;BME280;46212;50.258;19.062;2023-09-12T03:38:40;98265.78;;;15.64;100.00
53340;BME280;46212;50.258;19.062;2023-09-12T03:41:06;98251.63;;;15.62;100.00
53340;BME280;46212;50.258;19.062;2023-09-12T03:43:32;98259.75;;;15.71;100.00
53340;BME280;46212;50.258;19.062;2023-09-12T03:45:58;98251.13;;;15.63;100.00
53340;BME280;46212;50.258;19.062;2023-09-12T03:48:23;98257.44;;;15.64;100.00
53340;BME280;46212;50.258;19.062;2023-09-12T03:50:49;98263.53;;;15.62;100.00
53340;BME280;46212;50.258;19.062;2023-09-12T03:53:14;98264.22;;;15.57;100.00
53340;BME280;46212;50.258;19.062;2023-09-12T03:55:41;98259.66;;;15.54;100.00
53340;BME280;46212;50.258;19.062;2023-09-12T03:58:06;98254.25;;;15.39;100.00
53340;BME280;46212;50.258;19.062;2023-09-12T04:00:32;98267.69;;;15.41;100.00
53340;BME280;46212;50.258;19.062;2023-09-12T04:02:57;98261.13;;;15.44;100.00
53340;BME280;46212;50.258;19.062;2023-09-12T04:05:22;98270.00;;;15.48;100.00
53340;BME280;46212;50.258;19.062;2023-09-12T04:07:48;98267.75;;;15.52;100.00
53340;BME280;46212;50.258;19.062;2023-09-12T04:10:13;98263.19;;;15.49;100.00
53340;BME280;46212;50.258;19.062;2023-09-12T04:12:39;98269.78;;;15.52;100.00
53340;BME280;46212;50.258;19.062;2023-09-12T04:15:06;98267.50;;;15.50;100.00
53340;BME280;46212;50.258;19.062;2023-09-12T04:17:31;98270.50;;;15.47;100.00
53340;BME280;46212;50.258;19.062;2023-09-12T04:19:57;98269.25;;;15.48;100.00
53340;BME280;46212;50.258;19.062;2023-09-12T04:22:22;98268.75;;;15.49;100.00
53340;BME280;46212;50.258;19.062;2023-09-12T04:24:47;98268.19;;;15.45;100.00
53340;BME280;46212;50.258;19.062;2023-09-12T04:27:13;98269.94;;;15.42;100.00
53340;BME280;46212;50.258;19.062;2023-09-12T04:29:38;98268.69;;;15.43;100.00
53340;BME280;46212;50.258;19.062;2023-09-12T04:32:05;98268.94;;;15.40;100.00
53340;BME280;46212;50.258;19.062;2023-09-12T04:34:31;98277.31;;;15.46;100.00
53340;BME280;46212;50.258;19.062;2023-09-12T04:36:56;98274.75;;;15.42;100.00
53340;BME280;46212;50.258;19.062;2023-09-12T04:39:22;98280.59;;;15.44;100.00
53340;BME280;46212;50.258;19.062;2023-09-12T04:41:48;98282.19;;;15.51;100.00
53340;BME280;46212;50.258;19.062;2023-09-12T04:44:13;98264.94;;;15.47;100.00
53340;BME280;46212;50.258;19.062;2023-09-12T04:46:39;98273.34;;;15.58;100.00
53340;BME280;46212;50.258;19.062;2023-09-12T04:49:04;98278.22;;;15.63;100.00
53340;BME280;46212;50.258;19.062;2023-09-12T04:51:29;98279.22;;;15.65;100.00
53340;BME280;46212;50.258;19.062;2023-09-12T04:53:55;98271.91;;;15.68;100.00
53340;BME280;46212;50.258;19.062;2023-09-12T04:56:20;98273.63;;;15.60;100.00
53340;BME280;46212;50.258;19.062;2023-09-12T04:58:46;98281.50;;;15.67;100.00
53340;BME280;46212;50.258;19.062;2023-09-12T05:01:11;98277.47;;;15.68;100.00
53340;BME280;46212;50.258;19.062;2023-09-12T05:03:37;98285.63;;;15.82;100.00
53340;BME280;46212;50.258;19.062;2023-09-12T05:06:02;98285.69;;;15.88;100.00
53340;BME280;46212;50.258;19.062;2023-09-12T05:08:29;98287.25;;;16.00;100.00
53340;BME280;46212;50.258;19.062;2023-09-12T05:10:54;98291.06;;;16.08;100.00
53340;BME280;46212;50.258;19.062;2023-09-12T05:13:20;98290.84;;;16.17;100.00
53340;BME280;46212;50.258;19.062;2023-09-12T05:15:46;98285.56;;;16.25;99.94
53340;BME280;46212;50.258;19.062;2023-09-12T05:18:12;98300.25;;;16.31;99.80
53340;BME280;46212;50.258;19.062;2023-09-12T05:20:37;98296.72;;;16.30;99.89
53340;BME280;46212;50.258;19.062;2023-09-12T05:23:03;98294.22;;;16.38;100.00
53340;BME280;46212;50.258;19.062;2023-09-12T05:25:28;98290.19;;;16.44;99.98
53340;BME280;46212;50.258;19.062;2023-09-12T05:27:55;98297.59;;;16.64;99.97
53340;BME280;46212;50.258;19.062;2023-09-12T05:30:20;98295.59;;;16.70;99.43
53340;BME280;46212;50.258;19.062;2023-09-12T05:32:46;98299.38;;;16.73;99.50
53340;BME280;46212;50.258;19.062;2023-09-12T05:35:11;98300.91;;;16.79;99.26
53340;BME280;46212;50.258;19.062;2023-09-12T05:37:37;98301.69;;;16.80;99.71
53340;BME280;46212;50.258;19.062;2023-09-12T05:40:02;98298.38;;;16.81;100.00
53340;BME280;46212;50.258;19.062;2023-09-12T05:42:28;98295.63;;;16.87;100.00
53340;BME280;46212;50.258;19.062;2023-09-12T05:44:54;98299.41;;;16.89;100.00
53340;BME280;46212;50.258;19.062;2023-09-12T05:47:20;98296.38;;;16.93;100.00
53340;BME280;46212;50.258;19.062;2023-09-12T05:49:45;98289.50;;;16.94;100.00
53340;BME280;46212;50.258;19.062;2023-09-12T05:52:11;98295.63;;;17.09;100.00
53340;BME280;46212;50.258;19.062;2023-09-12T05:54:37;98294.34;;;17.16;100.00
53340;BME280;46212;50.258;19.062;2023-09-12T05:57:03;98300.94;;;17.24;100.00
53340;BME280;46212;50.258;19.062;2023-09-12T05:59:28;98297.13;;;17.27;100.00
53340;BME280;46212;50.258;19.062;2023-09-12T06:01:54;98292.31;;;17.33;100.00
53340;BME280;46212;50.258;19.062;2023-09-12T06:04:20;98301.44;;;17.50;100.00
53340;BME280;46212;50.258;19.062;2023-09-12T06:06:46;98285.91;;;17.54;100.00
53340;BME280;46212;50.258;19.062;2023-09-12T06:09:11;98308.03;;;17.69;100.00
53340;BME280;46212;50.258;19.062;2023-09-12T06:11:37;98289.97;;;17.70;100.00
53340;BME280;46212;50.258;19.062;2023-09-12T06:14:02;98303.91;;;17.87;100.00
53340;BME280;46212;50.258;19.062;2023-09-12T06:16:27;98307.41;;;17.98;100.00
53340;BME280;46212;50.258;19.062;2023-09-12T06:18:53;98306.13;;;18.11;100.00
53340;BME280;46212;50.258;19.062;2023-09-12T06:21:19;98306.09;;;18.16;100.00
53340;BME280;46212;50.258;19.062;2023-09-12T06:23:47;98307.06;;;18.24;100.00
53340;BME280;46212;50.258;19.062;2023-09-12T06:26:12;98306.28;;;18.29;100.00
53340;BME280;46212;50.258;19.062;2023-09-12T06:28:37;98312.84;;;18.37;100.00
53340;BME280;46212;50.258;19.062;2023-09-12T06:31:03;98301.88;;;18.50;100.00
53340;BME280;46212;50.258;19.062;2023-09-12T06:33:28;98306.38;;;18.65;100.00
53340;BME280;46212;50.258;19.062;2023-09-12T06:35:54;98298.47;;;18.69;100.00
53340;BME280;46212;50.258;19.062;2023-09-12T06:38:21;98301.97;;;18.75;100.00
53340;BME280;46212;50.258;19.062;2023-09-12T06:40:46;98301.66;;;18.84;99.90
53340;BME280;46212;50.258;19.062;2023-09-12T06:43:13;98299.13;;;18.86;100.00
53340;BME280;46212;50.258;19.062;2023-09-12T06:45:40;98304.41;;;18.95;99.78
53340;BME280;46212;50.258;19.062;2023-09-12T06:48:05;98304.06;;;19.04;99.46
53340;BME280;46212;50.258;19.062;2023-09-12T06:50:31;98312.69;;;19.06;100.00
53340;BME280;46212;50.258;19.062;2023-09-12T06:52:56;98313.91;;;19.16;99.75
53340;BME280;46212;50.258;19.062;2023-09-12T06:55:22;98302.66;;;19.22;99.46
53340;BME280;46212;50.258;19.062;2023-09-12T06:57:47;98299.75;;;19.33;98.88
53340;BME280;46212;50.258;19.062;2023-09-12T07:00:13;98315.16;;;19.50;98.55
53340;BME280;46212;50.258;19.062;2023-09-12T07:02:39;98320.47;;;19.54;98.54
53340;BME280;46212;50.258;19.062;2023-09-12T07:05:04;98314.06;;;19.59;98.12
53340;BME280;46212;50.258;19.062;2023-09-12T07:07:30;98321.00;;;19.77;97.50
53340;BME280;46212;50.258;19.062;2023-09-12T07:09:56;98317.34;;;19.87;97.10
53340;BME280;46212;50.258;19.062;2023-09-12T07:12:22;98320.28;;;19.95;96.81
53340;BME280;46212;50.258;19.062;2023-09-12T07:14:47;98321.75;;;20.01;96.50
53340;BME280;46212;50.258;19.062;2023-09-12T07:17:12;98318.84;;;20.12;95.99
53340;BME280;46212;50.258;19.062;2023-09-12T07:19:38;98313.16;;;20.18;95.87
53340;BME280;46212;50.258;19.062;2023-09-12T07:22:03;98316.66;;;20.24;95.12
53340;BME280;46212;50.258;19.062;2023-09-12T07:24:29;98311.94;;;20.38;94.69
53340;BME280;46212;50.258;19.062;2023-09-12T07:26:54;98311.63;;;20.41;94.63
53340;BME280;46212;50.258;19.062;2023-09-12T07:29:20;98312.53;;;20.49;94.08
53340;BME280;46212;50.258;19.062;2023-09-12T07:31:45;98322.09;;;20.59;93.84
53340;BME280;46212;50.258;19.062;2023-09-12T07:34:11;98317.84;;;20.72;93.72
53340;BME280;46212;50.258;19.062;2023-09-12T07:36:37;98323.34;;;20.77;93.09
53340;BME280;46212;50.258;19.062;2023-09-12T07:39:03;98317.13;;;20.84;92.33
53340;BME280;46212;50.258;19.062;2023-09-12T07:41:29;98321.84;;;20.95;92.36
53340;BME280;46212;50.258;19.062;2023-09-12T07:43:55;98327.06;;;21.04;91.23
53340;BME280;46212;50.258;19.062;2023-09-12T07:46:21;98328.66;;;21.18;88.81
53340;BME280;46212;50.258;19.062;2023-09-12T07:48:46;98311.13;;;21.12;88.52
53340;BME280;46212;50.258;19.062;2023-09-12T07:51:16;98326.22;;;21.28;88.39
53340;BME280;46212;50.258;19.062;2023-09-12T07:53:43;98323.22;;;21.39;88.29
53340;BME280;46212;50.258;19.062;2023-09-12T07:56:09;98321.81;;;21.45;87.73
53340;BME280;46212;50.258;19.062;2023-09-12T07:58:37;98330.03;;;21.56;87.10
53340;BME280;46212;50.258;19.062;2023-09-12T08:01:07;98329.09;;;21.67;86.67
53340;BME280;46212;50.258;19.062;2023-09-12T08:03:34;98324.78;;;21.79;85.96
53340;BME280;46212;50.258;19.062;2023-09-12T08:06:00;98332.59;;;21.86;85.39
53340;BME280;46212;50.258;19.062;2023-09-12T08:08:25;98326.56;;;21.95;84.42
53340;BME280;46212;50.258;19.062;2023-09-12T08:10:51;98323.63;;;22.01;82.99
53340;BME280;46212;50.258;19.062;2023-09-12T08:13:16;98323.97;;;22.10;82.47
53340;BME280;46212;50.258;19.062;2023-09-12T08:15:42;98321.25;;;22.18;83.05
53340;BME280;46212;50.258;19.062;2023-09-12T08:18:07;98322.13;;;22.26;82.30
53340;BME280;46212;50.258;19.062;2023-09-12T08:20:33;98324.06;;;22.31;82.25
53340;BME280;46212;50.258;19.062;2023-09-12T08:22:58;98316.91;;;22.30;80.93
53340;BME280;46212;50.258;19.062;2023-09-12T08:25:24;98327.84;;;22.47;81.60
53340;BME280;46212;50.258;19.062;2023-09-12T08:27:50;98311.38;;;22.51;80.95
53340;BME280;46212;50.258;19.062;2023-09-12T08:30:16;98322.38;;;22.62;79.32
53340;BME280;46212;50.258;19.062;2023-09-12T08:32:42;98315.34;;;22.68;78.93
53340;BME280;46212;50.258;19.062;2023-09-12T08:35:14;98330.59;;;22.86;77.49
53340;BME280;46212;50.258;19.062;2023-09-12T08:37:40;98326.75;;;22.97;77.68
53340;BME280;46212;50.258;19.062;2023-09-12T08:40:07;98335.06;;;23.02;76.94
53340;BME280;46212;50.258;19.062;2023-09-12T08:45:07;98326.03;;;23.17;73.19
53340;BME280;46212;50.258;19.062;2023-09-12T08:47:41;98322.91;;;23.28;72.69
53340;BME280;46212;50.258;19.062;2023-09-12T08:50:10;98328.84;;;23.38;72.98
53340;BME280;46212;50.258;19.062;2023-09-12T08:52:37;98326.88;;;23.46;72.64
53340;BME280;46212;50.258;19.062;2023-09-12T08:55:03;98323.31;;;23.45;71.96
53340;BME280;46212;50.258;19.062;2023-09-12T08:57:30;98322.81;;;23.54;72.76
53340;BME280;46212;50.258;19.062;2023-09-12T08:59:56;98318.34;;;23.59;73.14
53340;BME280;46212;50.258;19.062;2023-09-12T09:02:22;98322.94;;;23.69;72.50
53340;BME280;46212;50.258;19.062;2023-09-12T09:04:48;98328.06;;;23.78;72.20
53340;BME280;46212;50.258;19.062;2023-09-12T09:07:16;98329.84;;;23.89;70.62
53340;BME280;46212;50.258;19.062;2023-09-12T09:09:43;98328.38;;;23.96;68.37
53340;BME280;46212;50.258;19.062;2023-09-12T09:12:09;98319.41;;;24.05;67.93
53340;BME280;46212;50.258;19.062;2023-09-12T09:14:36;98327.25;;;24.19;65.58
53340;BME280;46212;50.258;19.062;2023-09-12T09:17:01;98315.00;;;24.17;65.39
53340;BME280;46212;50.258;19.062;2023-09-12T09:19:40;98322.56;;;24.22;64.19
53340;BME280;46212;50.258;19.062;2023-09-12T09:22:07;98323.75;;;24.34;64.27
53340;BME280;46212;50.258;19.062;2023-09-12T09:24:32;98320.22;;;24.41;64.05
53340;BME280;46212;50.258;19.062;2023-09-12T09:26:58;98308.94;;;24.49;64.54
53340;BME280;46212;50.258;19.062;2023-09-12T09:29:25;98316.53;;;24.61;62.90
53340;BME280;46212;50.258;19.062;2023-09-12T09:31:52;98310.03;;;24.81;64.39
53340;BME280;46212;50.258;19.062;2023-09-12T09:34:19;98312.13;;;24.89;66.08
53340;BME280;46212;50.258;19.062;2023-09-12T09:36:50;98303.28;;;24.92;63.40
53340;BME280;46212;50.258;19.062;2023-09-12T09:39:27;98310.28;;;24.99;60.68
53340;BME280;46212;50.258;19.062;2023-09-12T09:41:55;98311.63;;;25.13;60.06
53340;BME280;46212;50.258;19.062;2023-09-12T09:44:22;98313.53;;;25.18;60.81
53340;BME280;46212;50.258;19.062;2023-09-12T09:46:55;98310.13;;;25.27;60.19
53340;BME280;46212;50.258;19.062;2023-09-12T09:49:21;98306.94;;;25.30;58.30
53340;BME280;46212;50.258;19.062;2023-09-12T09:51:47;98313.88;;;25.37;58.29
53340;BME280;46212;50.258;19.062;2023-09-12T09:54:13;98310.91;;;25.50;58.28
53340;BME280;46212;50.258;19.062;2023-09-12T09:56:57;98314.50;;;25.58;59.04
53340;BME280;46212;50.258;19.062;2023-09-12T09:59:26;98317.34;;;25.58;59.67
53340;BME280;46212;50.258;19.062;2023-09-12T10:01:59;98306.19;;;25.75;58.16
53340;BME280;46212;50.258;19.062;2023-09-12T10:04:27;98313.94;;;25.67;58.14
53340;BME280;46212;50.258;19.062;2023-09-12T10:06:56;98317.72;;;25.70;59.43
53340;BME280;46212;50.258;19.062;2023-09-12T10:09:23;98307.88;;;25.78;59.20
53340;BME280;46212;50.258;19.062;2023-09-12T10:11:51;98311.84;;;25.83;59.06
53340;BME280;46212;50.258;19.062;2023-09-12T10:14:19;98307.13;;;25.93;58.72
53340;BME280;46212;50.258;19.062;2023-09-12T10:16:47;98315.78;;;26.03;58.22
53340;BME280;46212;50.258;19.062;2023-09-12T10:19:23;98307.84;;;26.01;58.59
53340;BME280;46212;50.258;19.062;2023-09-12T10:24:19;98301.03;;;26.12;59.12
53340;BME280;46212;50.258;19.062;2023-09-12T10:26:48;98305.00;;;26.16;59.25
53340;BME280;46212;50.258;19.062;2023-09-12T10:29:15;98308.56;;;26.32;58.15
53340;BME280;46212;50.258;19.062;2023-09-12T10:31:41;98307.53;;;26.52;55.83
53340;BME280;46212;50.258;19.062;2023-09-12T10:34:07;98307.13;;;26.63;55.75
53340;BME280;46212;50.258;19.062;2023-09-12T10:36:39;98299.50;;;26.81;55.60
53340;BME280;46212;50.258;19.062;2023-09-12T10:39:06;98307.97;;;26.88;54.82
53340;BME280;46212;50.258;19.062;2023-09-12T10:41:32;98297.97;;;26.87;53.83
53340;BME280;46212;50.258;19.062;2023-09-12T10:43:59;98301.84;;;27.00;53.43
53340;BME280;46212;50.258;19.062;2023-09-12T10:46:25;98294.19;;;27.17;53.05
53340;BME280;46212;50.258;19.062;2023-09-12T10:48:51;98294.84;;;27.33;52.43
53340;BME280;46212;50.258;19.062;2023-09-12T10:51:18;98296.47;;;27.43;51.91
53340;BME280;46212;50.258;19.062;2023-09-12T10:53:49;98287.31;;;27.53;50.00
53340;BME280;46212;50.258;19.062;2023-09-12T10:56:18;98301.94;;;27.66;49.95
53340;BME280;46212;50.258;19.062;2023-09-12T11:01:42;98299.56;;;27.80;51.66
53340;BME280;46212;50.258;19.062;2023-09-12T11:06:49;98296.13;;;28.06;50.21
53340;BME280;46212;50.258;19.062;2023-09-12T11:09:17;98297.88;;;28.19;49.01
53340;BME280;46212;50.258;19.062;2023-09-12T11:11:48;98292.22;;;28.19;48.67
53340;BME280;46212;50.258;19.062;2023-09-12T11:14:15;98297.38;;;28.47;47.31
53340;BME280;46212;50.258;19.062;2023-09-12T11:16:41;98294.94;;;28.43;46.51
53340;BME280;46212;50.258;19.062;2023-09-12T11:19:21;98297.38;;;28.47;46.36
53340;BME280;46212;50.258;19.062;2023-09-12T11:21:52;98289.78;;;28.76;45.53
53340;BME280;46212;50.258;19.062;2023-09-12T11:24:20;98281.38;;;28.69;42.34
53340;BME280;46212;50.258;19.062;2023-09-12T11:27:02;98290.47;;;28.84;42.27
53340;BME280;46212;50.258;19.062;2023-09-12T11:29:38;98286.75;;;28.91;41.13
53340;BME280;46212;50.258;19.062;2023-09-12T11:32:05;98291.59;;;29.25;41.74
53340;BME280;46212;50.258;19.062;2023-09-12T11:34:40;98293.72;;;29.34;42.01
53340;BME280;46212;50.258;19.062;2023-09-12T11:37:06;98289.53;;;29.35;41.84
53340;BME280;46212;50.258;19.062;2023-09-12T11:39:32;98295.47;;;29.66;41.29
53340;BME280;46212;50.258;19.062;2023-09-12T11:42:00;98293.25;;;29.65;38.94
53340;BME280;46212;50.258;19.062;2023-09-12T11:44:26;98282.47;;;29.73;39.87
53340;BME280;46212;50.258;19.062;2023-09-12T11:46:52;98281.03;;;29.91;41.10
53340;BME280;46212;50.258;19.062;2023-09-12T11:49:18;98280.75;;;30.06;39.79
53340;BME280;46212;50.258;19.062;2023-09-12T11:51:52;98287.06;;;30.24;41.83
53340;BME280;46212;50.258;19.062;2023-09-12T11:54:25;98277.63;;;30.21;39.28
53340;BME280;46212;50.258;19.062;2023-09-12T11:56:51;98278.94;;;29.91;39.36
53340;BME280;46212;50.258;19.062;2023-09-12T11:59:27;98275.75;;;29.87;39.62
53340;BME280;46212;50.258;19.062;2023-09-12T12:01:54;98279.25;;;29.95;39.00
53340;BME280;46212;50.258;19.062;2023-09-12T12:04:24;98275.22;;;30.27;38.32
53340;BME280;46212;50.258;19.062;2023-09-12T12:06:51;98277.88;;;30.73;38.49
53340;BME280;46212;50.258;19.062;2023-09-12T12:09:18;98263.13;;;31.05;39.45
53340;BME280;46212;50.258;19.062;2023-09-12T12:11:45;98268.72;;;31.34;36.43
53340;BME280;46212;50.258;19.062;2023-09-12T12:14:17;98272.44;;;31.37;36.57
53340;BME280;46212;50.258;19.062;2023-09-12T12:16:45;98270.28;;;31.47;36.49
53340;BME280;46212;50.258;19.062;2023-09-12T12:19:13;98275.81;;;31.64;36.61
53340;BME280;46212;50.258;19.062;2023-09-12T12:21:42;98276.63;;;31.55;36.84
53340;BME280;46212;50.258;19.062;2023-09-12T12:24:10;98278.25;;;31.58;37.38
53340;BME280;46212;50.258;19.062;2023-09-12T12:26:37;98271.72;;;31.67;35.60
53340;BME280;46212;50.258;19.062;2023-09-12T12:29:04;98263.63;;;31.85;36.45
53340;BME280;46212;50.258;19.062;2023-09-12T12:31:30;98253.94;;;31.99;34.63
53340;BME280;46212;50.258;19.062;2023-09-12T12:33:56;98250.06;;;32.16;34.60
53340;BME280;46212;50.258;19.062;2023-09-12T12:36:22;98259.53;;;32.19;35.05
53340;BME280;46212;50.258;19.062;2023-09-12T12:38:49;98256.91;;;32.23;35.57
53340;BME280;46212;50.258;19.062;2023-09-12T12:41:34;98251.06;;;32.21;36.58
53340;BME280;46212;50.258;19.062;2023-09-12T12:44:01;98256.75;;;32.42;34.72
53340;BME280;46212;50.258;19.062;2023-09-12T12:46:27;98258.50;;;32.68;34.29
53340;BME280;46212;50.258;19.062;2023-09-12T12:48:54;98265.75;;;32.27;34.15
53340;BME280;46212;50.258;19.062;2023-09-12T12:51:22;98263.69;;;31.75;34.86
53340;BME280;46212;50.258;19.062;2023-09-12T12:53:50;98256.28;;;32.78;33.82
53340;BME280;46212;50.258;19.062;2023-09-12T12:56:23;98255.91;;;32.84;33.86
53340;BME280;46212;50.258;19.062;2023-09-12T12:58:52;98260.56;;;33.82;32.37
53340;BME280;46212;50.258;19.062;2023-09-12T13:01:20;98260.59;;;34.55;31.08